AEE3KN LGAV-LGIR
Flight info
| Callsign | AEE3KN |
|---|---|
| Flight time | 0h 37m |
| Altitude | 23000 |
| Route | KEA UL607 GIVIS T514 XAVIS |
| Aircraft | A20N/M-SDE2E3FGHIRWXY/LB1 |
Departure
| Time | 2026-05-06 16:50 |
|---|---|
| Airport | Athens Eleftherios Venizelos International Airport (LGAV) |
Arrival
| Time | 2026-05-06 17:28 |
|---|---|
| Airport | Heraklion International Nikos Kazantzakis Airport (LGIR) |
| Time | Latitude | Longitude | Altitude | Speed | Heading |
|---|---|---|---|---|---|
| 2026-05-06 16:23 | 37.94138 | 23.95094 | 288 ft | 0 kts | 37° |
| 2026-05-06 16:36 | 37.94136 | 23.95091 | 288 ft | 2 kts | 36° |
| 2026-05-06 16:36 | 37.94123 | 23.95080 | 288 ft | 2 kts | 38° |
| 2026-05-06 16:36 | 37.94111 | 23.95068 | 289 ft | 2 kts | 37° |
| 2026-05-06 16:37 | 37.94099 | 23.95057 | 289 ft | 2 kts | 47° |
| 2026-05-06 16:37 | 37.94092 | 23.95040 | 289 ft | 2 kts | 75° |
| 2026-05-06 16:37 | 37.94091 | 23.95021 | 289 ft | 2 kts | 101° |
| 2026-05-06 16:37 | 37.94095 | 23.95005 | 290 ft | 0 kts | 124° |
| 2026-05-06 16:38 | 37.94099 | 23.94998 | 290 ft | 1 kts | 129° |
| 2026-05-06 16:38 | 37.94100 | 23.94997 | 290 ft | 0 kts | 128° |
| 2026-05-06 16:39 | 37.94092 | 23.95010 | 289 ft | 4 kts | 127° |
| 2026-05-06 16:40 | 37.94055 | 23.95075 | 288 ft | 13 kts | 127° |
| 2026-05-06 16:40 | 37.93991 | 23.95182 | 287 ft | 15 kts | 126° |
| 2026-05-06 16:40 | 37.93925 | 23.95296 | 287 ft | 15 kts | 127° |
| 2026-05-06 16:40 | 37.93907 | 23.95327 | 288 ft | 0 kts | 127° |
| 2026-05-06 16:41 | 37.93906 | 23.95328 | 288 ft | 0 kts | 127° |
| 2026-05-06 16:41 | 37.93897 | 23.95343 | 288 ft | 6 kts | 128° |
| 2026-05-06 16:41 | 37.93854 | 23.95417 | 287 ft | 11 kts | 116° |
| 2026-05-06 16:42 | 37.93882 | 23.95500 | 287 ft | 12 kts | 36° |
| 2026-05-06 16:42 | 37.93944 | 23.95558 | 287 ft | 4 kts | 37° |
| 2026-05-06 16:42 | 37.94001 | 23.95612 | 287 ft | 16 kts | 37° |
| 2026-05-06 16:42 | 37.94091 | 23.95698 | 287 ft | 16 kts | 37° |
| 2026-05-06 16:43 | 37.94181 | 23.95785 | 287 ft | 16 kts | 37° |
| 2026-05-06 16:43 | 37.94273 | 23.95871 | 287 ft | 16 kts | 37° |
| 2026-05-06 16:43 | 37.94365 | 23.95959 | 287 ft | 16 kts | 37° |
| 2026-05-06 16:43 | 37.94459 | 23.96047 | 287 ft | 16 kts | 37° |
| 2026-05-06 16:44 | 37.94558 | 23.96142 | 287 ft | 18 kts | 37° |
| 2026-05-06 16:44 | 37.94662 | 23.96241 | 287 ft | 18 kts | 37° |
| 2026-05-06 16:44 | 37.94766 | 23.96340 | 287 ft | 18 kts | 37° |
| 2026-05-06 16:44 | 37.94870 | 23.96437 | 287 ft | 18 kts | 37° |
| 2026-05-06 16:45 | 37.94978 | 23.96541 | 287 ft | 20 kts | 37° |
| 2026-05-06 16:45 | 37.95094 | 23.96651 | 287 ft | 20 kts | 37° |
| 2026-05-06 16:45 | 37.95208 | 23.96758 | 287 ft | 20 kts | 36° |
| 2026-05-06 16:45 | 37.95301 | 23.96873 | 287 ft | 17 kts | 89° |
| 2026-05-06 16:46 | 37.95271 | 23.96942 | 287 ft | 0 kts | 126° |
| 2026-05-06 16:46 | 37.95271 | 23.96943 | 287 ft | 0 kts | 126° |
| 2026-05-06 16:47 | 37.95242 | 23.96995 | 287 ft | 15 kts | 124° |
| 2026-05-06 16:48 | 37.95158 | 23.96989 | 287 ft | 5 kts | 217° |
| 2026-05-06 16:48 | 37.95156 | 23.96987 | 287 ft | 0 kts | 217° |
| 2026-05-06 16:49 | 37.95155 | 23.96987 | 287 ft | 0 kts | 217° |
| 2026-05-06 16:49 | 37.95017 | 23.96850 | 288 ft | 63 kts | 217° |
| 2026-05-06 16:50 | 37.94462 | 23.96328 | 288 ft | 132 kts | 217° |
| 2026-05-06 16:50 | 37.93572 | 23.95483 | 344 ft | 181 kts | 217° |
| 2026-05-06 16:50 | 37.92508 | 23.94595 | 964 ft | 186 kts | 206° |
| 2026-05-06 16:50 | 37.91726 | 23.94160 | 1515 ft | 185 kts | 204° |
| 2026-05-06 16:51 | 37.90232 | 23.93283 | 2668 ft | 181 kts | 206° |
| 2026-05-06 16:51 | 37.89070 | 23.92551 | 3223 ft | 195 kts | 207° |
| 2026-05-06 16:51 | 37.87831 | 23.91722 | 3771 ft | 210 kts | 208° |
| 2026-05-06 16:51 | 37.86494 | 23.90790 | 4228 ft | 232 kts | 209° |
| 2026-05-06 16:52 | 37.85028 | 23.89750 | 4771 ft | 251 kts | 210° |
| 2026-05-06 16:52 | 37.83502 | 23.88660 | 5633 ft | 256 kts | 210° |
| 2026-05-06 16:52 | 37.81952 | 23.87552 | 6349 ft | 258 kts | 210° |
| 2026-05-06 16:52 | 37.80379 | 23.86427 | 6782 ft | 260 kts | 210° |
| 2026-05-06 16:53 | 37.78974 | 23.85422 | 7098 ft | 266 kts | 209° |
| 2026-05-06 16:53 | 37.78377 | 23.85028 | 7361 ft | 269 kts | 204° |
| 2026-05-06 16:53 | 37.76578 | 23.84607 | 8303 ft | 268 kts | 174° |
| 2026-05-06 16:53 | 37.74835 | 23.85322 | 9173 ft | 269 kts | 148° |
| 2026-05-06 16:54 | 37.73477 | 23.87013 | 9706 ft | 284 kts | 121° |
| 2026-05-06 16:54 | 37.72570 | 23.89270 | 10409 ft | 292 kts | 116° |
| 2026-05-06 16:54 | 37.71644 | 23.91628 | 10901 ft | 308 kts | 117° |
| 2026-05-06 16:54 | 37.70641 | 23.94105 | 11297 ft | 326 kts | 117° |
| 2026-05-06 16:55 | 37.69566 | 23.96712 | 11656 ft | 344 kts | 117° |
| 2026-05-06 16:55 | 37.68417 | 23.99476 | 11997 ft | 362 kts | 117° |
| 2026-05-06 16:55 | 37.67229 | 24.02325 | 12581 ft | 370 kts | 117° |
| 2026-05-06 16:55 | 37.66030 | 24.05199 | 13320 ft | 373 kts | 117° |
| 2026-05-06 16:56 | 37.64817 | 24.08103 | 14040 ft | 376 kts | 117° |
| 2026-05-06 16:56 | 37.63592 | 24.11037 | 14726 ft | 380 kts | 117° |
| 2026-05-06 16:56 | 37.62357 | 24.13995 | 15391 ft | 384 kts | 117° |
| 2026-05-06 16:56 | 37.61108 | 24.16981 | 16041 ft | 388 kts | 117° |
| 2026-05-06 16:57 | 37.59849 | 24.19991 | 16672 ft | 391 kts | 117° |
| 2026-05-06 16:57 | 37.58576 | 24.23026 | 17285 ft | 395 kts | 117° |
| 2026-05-06 16:57 | 37.57284 | 24.26090 | 17881 ft | 398 kts | 119° |
| 2026-05-06 16:57 | 37.55695 | 24.28966 | 18445 ft | 402 kts | 130° |
| 2026-05-06 16:58 | 37.53672 | 24.31402 | 19010 ft | 405 kts | 142° |
| 2026-05-06 16:58 | 37.51332 | 24.33397 | 19568 ft | 408 kts | 147° |
| 2026-05-06 16:58 | 37.48912 | 24.35287 | 20106 ft | 412 kts | 148° |
| 2026-05-06 16:58 | 37.46464 | 24.37179 | 20636 ft | 415 kts | 148° |
| 2026-05-06 16:59 | 37.43992 | 24.39095 | 21165 ft | 418 kts | 148° |
| 2026-05-06 16:59 | 37.41502 | 24.41032 | 21684 ft | 422 kts | 148° |
| 2026-05-06 16:59 | 37.39002 | 24.42984 | 22192 ft | 425 kts | 148° |
| 2026-05-06 16:59 | 37.36483 | 24.44952 | 22686 ft | 428 kts | 148° |
| 2026-05-06 17:00 | 37.33942 | 24.46939 | 22978 ft | 430 kts | 148° |
| 2026-05-06 17:00 | 37.31403 | 24.48924 | 23005 ft | 430 kts | 148° |
| 2026-05-06 17:00 | 37.28865 | 24.50907 | 23008 ft | 430 kts | 148° |
| 2026-05-06 17:00 | 37.26331 | 24.52886 | 23009 ft | 430 kts | 148° |
| 2026-05-06 17:01 | 37.23791 | 24.54869 | 23010 ft | 430 kts | 148° |
| 2026-05-06 17:01 | 37.21255 | 24.56847 | 23010 ft | 430 kts | 148° |
| 2026-05-06 17:01 | 37.18711 | 24.58830 | 23010 ft | 430 kts | 148° |
| 2026-05-06 17:01 | 37.16171 | 24.60808 | 23010 ft | 430 kts | 148° |
| 2026-05-06 17:02 | 37.13629 | 24.62787 | 23010 ft | 430 kts | 148° |
| 2026-05-06 17:02 | 37.11074 | 24.64774 | 23010 ft | 430 kts | 148° |
| 2026-05-06 17:02 | 37.08515 | 24.66762 | 23010 ft | 430 kts | 148° |
| 2026-05-06 17:02 | 37.05972 | 24.68737 | 23010 ft | 430 kts | 148° |
| 2026-05-06 17:03 | 37.03428 | 24.70711 | 23010 ft | 430 kts | 148° |
| 2026-05-06 17:03 | 37.00884 | 24.72685 | 23010 ft | 430 kts | 148° |
| 2026-05-06 17:03 | 36.98336 | 24.74660 | 23010 ft | 430 kts | 148° |
| 2026-05-06 17:03 | 36.95794 | 24.76628 | 23010 ft | 430 kts | 148° |
| 2026-05-06 17:04 | 36.93252 | 24.78594 | 23010 ft | 430 kts | 148° |
| 2026-05-06 17:04 | 36.90711 | 24.80557 | 23010 ft | 430 kts | 148° |
| 2026-05-06 17:04 | 36.88120 | 24.82560 | 23009 ft | 429 kts | 148° |
| 2026-05-06 17:04 | 36.85621 | 24.84495 | 23009 ft | 418 kts | 148° |
| 2026-05-06 17:05 | 36.83157 | 24.86401 | 23010 ft | 416 kts | 148° |
| 2026-05-06 17:05 | 36.80701 | 24.88302 | 23010 ft | 416 kts | 148° |
| 2026-05-06 17:05 | 36.78248 | 24.90198 | 23010 ft | 416 kts | 148° |
| 2026-05-06 17:05 | 36.75790 | 24.92098 | 23010 ft | 416 kts | 148° |
| 2026-05-06 17:06 | 36.73319 | 24.94004 | 23010 ft | 416 kts | 148° |
| 2026-05-06 17:06 | 36.70851 | 24.95905 | 23010 ft | 416 kts | 148° |
| 2026-05-06 17:06 | 36.68374 | 24.97808 | 23010 ft | 416 kts | 148° |
| 2026-05-06 17:06 | 36.65907 | 24.99697 | 23010 ft | 416 kts | 148° |
| 2026-05-06 17:07 | 36.63436 | 25.01588 | 23010 ft | 416 kts | 148° |
| 2026-05-06 17:07 | 36.60971 | 25.03474 | 23010 ft | 416 kts | 148° |
| 2026-05-06 17:07 | 36.58512 | 25.05357 | 23010 ft | 416 kts | 148° |
| 2026-05-06 17:07 | 36.56050 | 25.07239 | 23010 ft | 416 kts | 148° |
| 2026-05-06 17:08 | 36.53589 | 25.09121 | 23010 ft | 416 kts | 148° |
| 2026-05-06 17:08 | 36.51117 | 25.11009 | 23010 ft | 416 kts | 148° |
| 2026-05-06 17:08 | 36.48646 | 25.12895 | 23011 ft | 416 kts | 148° |
| 2026-05-06 17:08 | 36.46183 | 25.14774 | 22908 ft | 416 kts | 148° |
| 2026-05-06 17:09 | 36.43729 | 25.16646 | 22658 ft | 413 kts | 148° |
| 2026-05-06 17:09 | 36.41286 | 25.18506 | 22410 ft | 412 kts | 148° |
| 2026-05-06 17:09 | 36.38839 | 25.20369 | 22160 ft | 410 kts | 148° |
| 2026-05-06 17:09 | 36.36415 | 25.22213 | 21912 ft | 409 kts | 148° |
| 2026-05-06 17:10 | 36.34004 | 25.24047 | 21664 ft | 407 kts | 148° |
| 2026-05-06 17:10 | 36.31593 | 25.25878 | 21415 ft | 405 kts | 148° |
| 2026-05-06 17:10 | 36.29195 | 25.27699 | 21166 ft | 404 kts | 148° |
| 2026-05-06 17:10 | 36.26792 | 25.29522 | 20916 ft | 402 kts | 148° |
| 2026-05-06 17:11 | 36.24409 | 25.31330 | 20665 ft | 401 kts | 148° |
| 2026-05-06 17:11 | 36.22036 | 25.33129 | 20390 ft | 399 kts | 148° |
| 2026-05-06 17:11 | 36.19673 | 25.34918 | 20086 ft | 398 kts | 148° |
| 2026-05-06 17:11 | 36.17321 | 25.36697 | 19689 ft | 395 kts | 148° |
| 2026-05-06 17:12 | 36.14981 | 25.38458 | 19229 ft | 392 kts | 149° |
| 2026-05-06 17:12 | 36.12583 | 25.40035 | 18743 ft | 389 kts | 154° |
| 2026-05-06 17:12 | 36.10099 | 25.41345 | 18247 ft | 386 kts | 159° |
| 2026-05-06 17:12 | 36.07569 | 25.42417 | 17750 ft | 384 kts | 161° |
| 2026-05-06 17:13 | 36.05037 | 25.43434 | 17247 ft | 381 kts | 162° |
| 2026-05-06 17:13 | 36.02523 | 25.44438 | 16749 ft | 379 kts | 162° |
| 2026-05-06 17:13 | 36.00027 | 25.45437 | 16251 ft | 377 kts | 161° |
| 2026-05-06 17:13 | 35.97548 | 25.46430 | 15756 ft | 374 kts | 161° |
| 2026-05-06 17:14 | 35.95081 | 25.47421 | 15261 ft | 372 kts | 161° |
| 2026-05-06 17:14 | 35.92631 | 25.48404 | 14768 ft | 369 kts | 161° |
| 2026-05-06 17:14 | 35.90188 | 25.49385 | 14274 ft | 367 kts | 161° |
| 2026-05-06 17:14 | 35.87769 | 25.50357 | 13784 ft | 365 kts | 161° |
| 2026-05-06 17:15 | 35.85366 | 25.51321 | 13294 ft | 362 kts | 161° |
| 2026-05-06 17:15 | 35.82971 | 25.52283 | 12806 ft | 360 kts | 161° |
| 2026-05-06 17:15 | 35.80600 | 25.53234 | 12320 ft | 358 kts | 161° |
| 2026-05-06 17:15 | 35.78240 | 25.54180 | 11837 ft | 355 kts | 161° |
| 2026-05-06 17:16 | 35.75870 | 25.55129 | 11348 ft | 353 kts | 161° |
| 2026-05-06 17:16 | 35.73544 | 25.56059 | 10872 ft | 350 kts | 161° |
| 2026-05-06 17:16 | 35.71252 | 25.56984 | 10593 ft | 340 kts | 159° |
| 2026-05-06 17:16 | 35.69135 | 25.58192 | 10443 ft | 327 kts | 149° |
| 2026-05-06 17:17 | 35.67297 | 25.59758 | 10300 ft | 314 kts | 141° |
| 2026-05-06 17:17 | 35.65620 | 25.61412 | 10162 ft | 303 kts | 140° |
| 2026-05-06 17:17 | 35.64024 | 25.63017 | 10035 ft | 291 kts | 140° |
| 2026-05-06 17:17 | 35.62457 | 25.64582 | 9718 ft | 288 kts | 142° |
| 2026-05-06 17:18 | 35.60698 | 25.65738 | 9307 ft | 287 kts | 169° |
| 2026-05-06 17:18 | 35.58730 | 25.65656 | 8952 ft | 284 kts | 198° |
| 2026-05-06 17:18 | 35.57035 | 25.64464 | 8619 ft | 280 kts | 225° |
| 2026-05-06 17:18 | 35.55965 | 25.62505 | 8315 ft | 276 kts | 245° |
| 2026-05-06 17:19 | 35.55180 | 25.60356 | 7991 ft | 274 kts | 246° |
| 2026-05-06 17:19 | 35.54369 | 25.58253 | 7669 ft | 273 kts | 243° |
| 2026-05-06 17:19 | 35.53487 | 25.56202 | 7347 ft | 271 kts | 241° |
| 2026-05-06 17:19 | 35.52556 | 25.54198 | 7025 ft | 269 kts | 240° |
| 2026-05-06 17:20 | 35.51594 | 25.52218 | 6703 ft | 268 kts | 239° |
| 2026-05-06 17:20 | 35.50625 | 25.50268 | 6384 ft | 266 kts | 239° |
| 2026-05-06 17:20 | 35.49657 | 25.48341 | 6067 ft | 265 kts | 238° |
| 2026-05-06 17:20 | 35.48690 | 25.46423 | 5750 ft | 263 kts | 238° |
| 2026-05-06 17:21 | 35.47727 | 25.44515 | 5435 ft | 262 kts | 238° |
| 2026-05-06 17:21 | 35.46768 | 25.42621 | 5120 ft | 260 kts | 237° |
| 2026-05-06 17:21 | 35.45544 | 25.41009 | 4763 ft | 259 kts | 210° |
| 2026-05-06 17:21 | 35.43822 | 25.40411 | 4439 ft | 257 kts | 179° |
| 2026-05-06 17:22 | 35.42101 | 25.40918 | 4119 ft | 255 kts | 153° |
| 2026-05-06 17:22 | 35.40594 | 25.41984 | 4035 ft | 243 kts | 149° |
| 2026-05-06 17:22 | 35.39160 | 25.43014 | 3960 ft | 231 kts | 150° |
| 2026-05-06 17:22 | 35.37762 | 25.43889 | 3879 ft | 219 kts | 165° |
| 2026-05-06 17:23 | 35.36318 | 25.43780 | 3787 ft | 204 kts | 205° |
| 2026-05-06 17:23 | 35.35275 | 25.42670 | 3521 ft | 199 kts | 239° |
| 2026-05-06 17:23 | 35.34686 | 25.41154 | 3304 ft | 195 kts | 247° |
| 2026-05-06 17:23 | 35.34149 | 25.39640 | 3096 ft | 193 kts | 246° |
| 2026-05-06 17:24 | 35.33601 | 25.38130 | 3032 ft | 193 kts | 246° |
| 2026-05-06 17:24 | 35.33073 | 25.36611 | 2990 ft | 194 kts | 253° |
| 2026-05-06 17:24 | 35.32874 | 25.34966 | 2831 ft | 194 kts | 267° |
| 2026-05-06 17:24 | 35.32916 | 25.33306 | 2512 ft | 193 kts | 274° |
| 2026-05-06 17:25 | 35.33038 | 25.31700 | 2217 ft | 184 kts | 275° |
| 2026-05-06 17:25 | 35.33157 | 25.30188 | 1952 ft | 173 kts | 275° |
| 2026-05-06 17:25 | 35.33256 | 25.28766 | 1727 ft | 161 kts | 275° |
| 2026-05-06 17:25 | 35.33345 | 25.27429 | 1461 ft | 151 kts | 274° |
| 2026-05-06 17:26 | 35.33426 | 25.26194 | 1245 ft | 139 kts | 275° |
| 2026-05-06 17:26 | 35.33506 | 25.25010 | 1057 ft | 139 kts | 275° |
| 2026-05-06 17:26 | 35.33583 | 25.23838 | 824 ft | 136 kts | 274° |
| 2026-05-06 17:26 | 35.33665 | 25.22666 | 673 ft | 138 kts | 274° |
| 2026-05-06 17:27 | 35.33742 | 25.21509 | 499 ft | 140 kts | 274° |
| 2026-05-06 17:27 | 35.33819 | 25.20337 | 307 ft | 134 kts | 274° |
| 2026-05-06 17:27 | 35.33894 | 25.19230 | 115 ft | 128 kts | 274° |
| 2026-05-06 17:27 | 35.33962 | 25.18198 | 84 ft | 91 kts | 275° |
| 2026-05-06 17:28 | 35.34004 | 25.17637 | 87 ft | 50 kts | 274° |
| 2026-05-06 17:28 | 35.34023 | 25.17315 | 85 ft | 34 kts | 275° |
| 2026-05-06 17:28 | 35.33979 | 25.17068 | 86 ft | 20 kts | 243° |
| 2026-05-06 17:28 | 35.33938 | 25.17081 | 90 ft | 6 kts | 103° |
| 2026-05-06 17:29 | 35.33934 | 25.17140 | 90 ft | 7 kts | 93° |
| 2026-05-06 17:29 | 35.33931 | 25.17205 | 92 ft | 7 kts | 93° |
| 2026-05-06 17:29 | 35.33928 | 25.17263 | 93 ft | 6 kts | 95° |
| 2026-05-06 17:29 | 35.33924 | 25.17310 | 94 ft | 5 kts | 95° |
| 2026-05-06 17:30 | 35.33919 | 25.17376 | 95 ft | 9 kts | 95° |
| 2026-05-06 17:30 | 35.33913 | 25.17460 | 96 ft | 10 kts | 98° |
| 2026-05-06 17:30 | 35.33872 | 25.17500 | 100 ft | 5 kts | 177° |
| 2026-05-06 17:30 | 35.33850 | 25.17499 | 102 ft | 3 kts | 185° |
| 2026-05-06 17:31 | 35.33828 | 25.17496 | 104 ft | 3 kts | 185° |
| 2026-05-06 17:31 | 35.33810 | 25.17491 | 106 ft | 1 kts | 214° |
| 2026-05-06 17:31 | 35.33804 | 25.17452 | 107 ft | 6 kts | 274° |
| 2026-05-06 17:31 | 35.33820 | 25.17416 | 105 ft | 0 kts | 311° |